Time;durP1;ratioP1;P1;durP2;ratioP2;P2;SDS_P1;SDS_P2;PMS_P1;PMS_P2;Temp;Humidity;BMP_temperature;BMP_pressure;BME280_temperature;BME280_humidity;BME280_pressure;Samples;Min_cycle;Max_cycle;Signal;HPM_P1;HPM_P2
2022/03/23 00:01:53;;;;;;;58.45;42.08;;;7.50;99.90;;;;;;5026906;28;20116;-50
2022/03/23 00:04:19;;;;;;;53.72;40.45;;;7.50;99.90;;;;;;5033447;28;20132;-50
2022/03/23 00:06:46;;;;;;;50.47;38.67;;;7.40;99.90;;;;;;5031119;28;20049;-49
2022/03/23 00:09:15;;;;;;;51.47;38.70;;;7.30;99.90;;;;;;5034984;28;20145;-51
2022/03/23 00:11:41;;;;;;;50.80;36.00;;;7.30;99.90;;;;;;5030018;28;20171;-49
2022/03/23 00:14:09;;;;;;;49.25;36.20;;;7.20;99.90;;;;;;5031529;28;20057;-49
2022/03/23 00:16:36;;;;;;;52.28;40.88;;;7.20;99.90;;;;;;5039991;28;20550;-49
2022/03/23 00:19:07;;;;;;;67.90;49.20;;;7.10;99.90;;;;;;5040676;28;20487;-51
2022/03/23 00:21:33;;;;;;;78.53;55.85;;;7.10;99.90;;;;;;5036376;28;20046;-48
2022/03/23 00:23:59;;;;;;;83.20;57.40;;;7.10;99.90;;;;;;5035261;28;20052;-50
2022/03/23 00:26:25;;;;;;;74.80;53.22;;;7.00;99.90;;;;;;5033894;28;20072;-48
2022/03/23 00:28:51;;;;;;;76.47;56.20;;;6.90;99.90;;;;;;5036596;28;20055;-49
2022/03/23 00:31:20;;;;;;;74.63;52.95;;;6.90;99.90;;;;;;5031465;28;20448;-48
2022/03/23 00:33:47;;;;;;;81.82;54.50;;;6.90;99.90;;;;;;5028572;28;20517;-50
2022/03/23 00:36:13;;;;;;;77.47;56.15;;;6.80;99.90;;;;;;5026384;28;20167;-49
2022/03/23 00:38:40;;;;;;;60.42;42.95;;;6.80;99.90;;;;;;5035458;28;20064;-48
2022/03/23 00:41:06;;;;;;;69.15;47.13;;;6.80;99.90;;;;;;5040157;28;20056;-49
2022/03/23 00:43:32;;;;;;;65.72;47.05;;;6.70;99.90;;;;;;5030130;28;20485;-53
2022/03/23 00:45:58;;;;;;;54.90;39.97;;;6.70;99.90;;;;;;5025099;28;20118;-49
2022/03/23 00:48:24;;;;;;;57.97;40.53;;;6.60;99.90;;;;;;5027599;28;20053;-51
2022/03/23 00:50:50;;;;;;;66.10;44.80;;;6.60;99.90;;;;;;5024443;28;20103;-50
2022/03/23 00:53:15;;;;;;;59.22;43.10;;;6.60;99.90;;;;;;5037150;28;20048;-50
2022/03/23 00:55:41;;;;;;;61.15;44.22;;;6.50;99.90;;;;;;5042179;28;20053;-50
2022/03/23 00:58:08;;;;;;;61.00;44.05;;;6.40;99.90;;;;;;5031501;28;20151;-51
2022/03/23 01:00:34;;;;;;;71.65;48.40;;;6.40;99.90;;;;;;5031451;28;21287;-49
2022/03/23 01:03:00;;;;;;;59.42;42.60;;;6.40;99.90;;;;;;5029495;28;20850;-53
2022/03/23 01:05:26;;;;;;;75.93;51.90;;;6.40;99.90;;;;;;5026798;28;20133;-48
2022/03/23 01:07:52;;;;;;;77.32;53.28;;;6.30;99.90;;;;;;5028125;28;20052;-49
2022/03/23 01:10:20;;;;;;;75.80;54.92;;;6.30;99.90;;;;;;5040126;28;20425;-51
2022/03/23 01:12:47;;;;;;;77.13;52.72;;;6.30;99.90;;;;;;5039840;28;20355;-49
2022/03/23 01:15:16;;;;;;;70.43;51.60;;;6.20;99.90;;;;;;5041299;28;20048;-52
2022/03/23 01:17:41;;;;;;;75.32;54.33;;;6.20;99.90;;;;;;5041223;28;20450;-49
2022/03/23 01:20:10;;;;;;;80.15;54.58;;;6.10;99.90;;;;;;5040525;28;20106;-48
2022/03/23 01:22:37;;;;;;;85.60;58.47;;;6.00;99.90;;;;;;5040970;28;20059;-46
2022/03/23 01:25:04;;;;;;;83.43;55.72;;;6.00;99.90;;;;;;5024447;28;20078;-49
2022/03/23 01:27:31;;;;;;;90.25;62.15;;;6.00;99.90;;;;;;5054756;28;20050;-51
2022/03/23 01:29:57;;;;;;;87.28;59.00;;;6.00;99.90;;;;;;5053016;28;20079;-49
2022/03/23 01:32:23;;;;;;;85.68;56.47;;;5.90;99.90;;;;;;5035540;28;20056;-50
2022/03/23 01:34:48;;;;;;;86.82;62.60;;;5.90;99.90;;;;;;5043474;28;20044;-49
2022/03/23 01:37:14;;;;;;;88.65;57.97;;;5.90;99.90;;;;;;5030777;28;20431;-49
2022/03/23 01:39:40;;;;;;;81.00;56.63;;;5.80;99.90;;;;;;5060998;28;20056;-52
2022/03/23 01:42:06;;;;;;;89.05;59.80;;;5.70;99.90;;;;;;5050883;28;20048;-50
2022/03/23 01:44:33;;;;;;;102.65;66.18;;;5.60;99.90;;;;;;5018544;28;20490;-48
2022/03/23 01:47:13;;;;;;;98.68;66.47;;;5.70;99.90;;;;;;5048438;28;20406;-47
2022/03/23 01:49:46;;;;;;;108.38;71.18;;;5.70;99.90;;;;;;5032527;28;20063;-49
2022/03/23 01:52:13;;;;;;;;;;;5.70;99.90;;;;;;5055630;28;20235;-49
2022/03/23 01:54:41;;;;;;;116.10;76.70;;;5.80;99.90;;;;;;5060644;28;20018;-49
2022/03/23 01:57:09;;;;;;;113.93;76.50;;;5.80;99.90;;;;;;5056165;28;20467;-51
2022/03/23 01:59:36;;;;;;;101.72;69.80;;;5.90;99.90;;;;;;5055667;28;20178;-49
2022/03/23 02:02:04;;;;;;;101.60;67.57;;;5.80;99.90;;;;;;5050952;28;20044;-50
2022/03/23 02:04:30;;;;;;;91.68;62.25;;;5.70;99.90;;;;;;5049706;28;20122;-49
2022/03/23 02:06:55;;;;;;;86.30;60.95;;;5.70;99.90;;;;;;5043039;28;20892;-49
2022/03/23 02:09:23;;;;;;;91.88;63.80;;;5.70;99.90;;;;;;5061255;28;20508;-51
2022/03/23 02:11:49;;;;;;;79.53;57.13;;;5.60;99.90;;;;;;5060670;28;20481;-50
2022/03/23 02:14:15;;;;;;;85.72;61.60;;;5.60;99.90;;;;;;5048528;28;20102;-46
2022/03/23 02:16:46;;;;;;;83.05;60.33;;;5.60;99.90;;;;;;5049459;28;20558;-48
2022/03/23 02:19:12;;;;;;;90.20;63.13;;;5.60;99.90;;;;;;5042969;28;20371;-51
2022/03/23 02:21:47;;;;;;;76.28;53.40;;;5.60;99.90;;;;;;5051924;28;20052;-48
2022/03/23 02:24:16;;;;;;;87.35;61.67;;;5.60;99.90;;;;;;5059054;28;20445;-53
2022/03/23 02:26:43;;;;;;;102.45;71.22;;;5.60;99.90;;;;;;5053549;28;20470;-50
2022/03/23 02:29:10;;;;;;;108.32;72.82;;;5.70;99.90;;;;;;5056786;28;20040;-50
2022/03/23 02:31:36;;;;;;;112.57;75.32;;;5.70;99.90;;;;;;5040903;28;20865;-52
2022/03/23 02:34:03;;;;;;;96.80;68.03;;;5.70;99.90;;;;;;5046120;28;20909;-49
2022/03/23 02:36:30;;;;;;;103.40;71.35;;;5.70;99.90;;;;;;5045963;28;20120;-49
2022/03/23 02:38:56;;;;;;;87.70;61.85;;;5.70;99.90;;;;;;5049013;28;20059;-50
2022/03/23 02:41:22;;;;;;;102.78;69.55;;;5.80;99.90;;;;;;5045664;28;20324;-49
2022/03/23 02:43:49;;;;;;;88.47;63.22;;;5.70;99.90;;;;;;5051703;28;20051;-49
2022/03/23 02:46:17;;;;;;;91.47;63.00;;;5.70;99.90;;;;;;5055055;28;20044;-52
2022/03/23 02:48:43;;;;;;;88.72;61.00;;;5.70;99.90;;;;;;5062061;28;20174;-53
2022/03/23 02:51:09;;;;;;;77.40;55.08;;;5.60;99.90;;;;;;5056193;28;20040;-50
2022/03/23 03:02:22;;;;;;;74.93;56.30;;;5.40;99.90;;;;;;5038234;28;20056;-49
2022/03/23 03:04:51;;;;;;;70.53;51.22;;;5.40;99.90;;;;;;5051678;28;20040;-48
2022/03/23 03:07:18;;;;;;;64.10;47.03;;;5.40;99.90;;;;;;5059111;28;20044;-48
2022/03/23 03:09:44;;;;;;;44.35;36.38;;;5.40;99.90;;;;;;5050931;28;20048;-49
2022/03/23 03:12:11;;;;;;;41.70;33.92;;;5.30;99.90;;;;;;5055968;28;20083;-49
2022/03/23 03:14:42;;;;;;;35.20;29.67;;;5.20;99.90;;;;;;5058208;28;20058;-49
2022/03/23 03:17:07;;;;;;;40.38;31.77;;;5.10;99.90;;;;;;5053592;28;20059;-46
2022/03/23 03:19:35;;;;;;;38.13;32.45;;;5.10;99.90;;;;;;5053996;28;20491;-50
2022/03/23 03:22:02;;;;;;;41.17;34.30;;;5.00;99.90;;;;;;5046830;28;20079;-49
2022/03/23 03:24:28;;;;;;;45.72;37.33;;;5.00;99.90;;;;;;5059264;28;20106;-51
2022/03/23 03:26:57;;;;;;;42.80;35.42;;;4.90;99.90;;;;;;5043286;28;20131;-49
2022/03/23 03:29:23;;;;;;;38.13;32.35;;;4.90;99.90;;;;;;5041721;28;20049;-49
2022/03/23 03:31:49;;;;;;;35.55;31.75;;;4.80;99.90;;;;;;5038714;28;20095;-49
2022/03/23 03:34:15;;;;;;;33.95;30.33;;;4.80;99.90;;;;;;5039493;28;20044;-49
2022/03/23 03:36:41;;;;;;;57.60;41.03;;;4.80;99.90;;;;;;5043292;28;20166;-49
2022/03/23 03:39:07;;;;;;;55.05;45.42;;;4.80;99.90;;;;;;5024341;28;20622;-49
2022/03/23 03:41:34;;;;;;;44.63;38.55;;;4.90;99.90;;;;;;5025009;28;20114;-50
2022/03/23 03:44:00;;;;;;;39.35;35.13;;;4.80;99.90;;;;;;5042971;28;20493;-49
2022/03/23 03:46:26;;;;;;;37.47;31.00;;;4.80;99.90;;;;;;5042973;28;20045;-49
2022/03/23 03:48:52;;;;;;;32.35;28.92;;;4.70;99.90;;;;;;5024198;28;20037;-49
2022/03/23 03:51:18;;;;;;;44.25;37.75;;;4.70;99.90;;;;;;5043271;28;20115;-49
2022/03/23 03:53:44;;;;;;;28.98;25.88;;;4.70;99.90;;;;;;5043490;28;20132;-50
2022/03/23 03:56:10;;;;;;;37.95;30.52;;;4.70;99.90;;;;;;5042447;28;20442;-49
2022/03/23 03:58:38;;;;;;;39.35;32.70;;;4.60;99.90;;;;;;5028076;28;20126;-49
2022/03/23 04:01:04;;;;;;;33.92;30.42;;;4.60;99.90;;;;;;5042629;28;20777;-51
2022/03/23 04:03:30;;;;;;;38.80;34.63;;;4.60;99.90;;;;;;5042743;28;20045;-52
2022/03/23 04:05:55;;;;;;;39.78;34.83;;;4.60;99.90;;;;;;5043099;28;20075;-47
2022/03/23 04:08:21;;;;;;;30.50;27.23;;;4.60;99.90;;;;;;5040296;28;20427;-50
2022/03/23 04:10:47;;;;;;;32.85;28.40;;;4.60;99.90;;;;;;5042396;28;20061;-50
2022/03/23 04:13:13;;;;;;;44.40;35.97;;;4.50;99.90;;;;;;5041523;28;20479;-49
2022/03/23 04:15:38;;;;;;;44.45;34.60;;;4.60;99.90;;;;;;5041674;28;20053;-49
2022/03/23 04:18:05;;;;;;;43.53;35.22;;;4.60;99.90;;;;;;5047610;28;20056;-51
2022/03/23 04:20:31;;;;;;;50.85;36.08;;;4.60;99.90;;;;;;5038274;28;20053;-49
2022/03/23 04:22:57;;;;;;;136.85;46.55;;;4.60;99.90;;;;;;5041905;28;20045;-49
2022/03/23 04:25:23;;;;;;;164.10;46.55;;;4.60;99.90;;;;;;5024165;28;20060;-49
2022/03/23 04:27:51;;;;;;;140.20;42.83;;;4.60;99.90;;;;;;5046787;28;20057;-51
2022/03/23 04:30:19;;;;;;;61.90;33.72;;;4.50;99.90;;;;;;5062675;28;20079;-49
2022/03/23 04:32:47;;;;;;;304.75;45.03;;;4.40;99.90;;;;;;5044809;28;20131;-48
2022/03/23 04:35:13;;;;;;;505.05;53.45;;;4.40;99.90;;;;;;5044297;28;20056;-51
2022/03/23 04:37:39;;;;;;;242.45;42.35;;;4.30;99.90;;;;;;5062055;28;20484;-50
2022/03/23 04:40:07;;;;;;;202.23;44.50;;;4.10;99.90;;;;;;5061959;28;20443;-50
2022/03/23 04:42:37;;;;;;;386.52;47.40;;;4.10;99.90;;;;;;5062432;28;20056;-49
2022/03/23 04:45:05;;;;;;;285.67;43.70;;;4.00;99.90;;;;;;5062271;28;20512;-49
2022/03/23 04:47:31;;;;;;;296.33;45.92;;;4.00;99.90;;;;;;5061678;28;20163;-49
2022/03/23 04:49:57;;;;;;;245.50;50.83;;;3.90;99.90;;;;;;5062026;28;20044;-49
2022/03/23 04:52:23;;;;;;;180.77;56.55;;;3.90;99.90;;;;;;5062023;28;20135;-51
2022/03/23 04:54:49;;;;;;;359.27;56.60;;;4.00;99.90;;;;;;5062515;28;20283;-48
2022/03/23 04:57:15;;;;;;;328.98;55.88;;;3.90;99.90;;;;;;5061976;28;20121;-49
2022/03/23 04:59:40;;;;;;;306.50;52.90;;;3.90;99.90;;;;;;5061528;28;20044;-49
2022/03/23 05:02:06;;;;;;;193.43;45.55;;;3.90;99.90;;;;;;5037903;28;21024;-49
2022/03/23 05:04:32;;;;;;;173.23;43.75;;;3.90;99.90;;;;;;5051865;28;20430;-49
2022/03/23 05:06:57;;;;;;;51.53;37.28;;;3.90;99.90;;;;;;5052417;28;20491;-50
2022/03/23 05:09:23;;;;;;;36.33;32.58;;;3.90;99.90;;;;;;5056105;28;20041;-52
2022/03/23 05:11:49;;;;;;;38.35;34.20;;;3.80;99.90;;;;;;5042610;28;20048;-49
2022/03/23 05:14:15;;;;;;;34.13;30.63;;;3.80;99.90;;;;;;5040432;28;20525;-49
2022/03/23 05:16:42;;;;;;;40.78;30.20;;;3.80;99.90;;;;;;5061469;28;20380;-52
2022/03/23 05:19:07;;;;;;;28.42;25.30;;;3.80;99.90;;;;;;5052287;28;20049;-47
2022/03/23 05:21:33;;;;;;;26.77;24.13;;;3.80;99.90;;;;;;5040063;28;20051;-49
2022/03/23 05:23:59;;;;;;;26.40;23.73;;;3.80;99.90;;;;;;5055606;28;20048;-49
2022/03/23 05:26:25;;;;;;;27.30;24.40;;;3.80;99.90;;;;;;5056635;28;20131;-49
2022/03/23 05:28:51;;;;;;;26.05;23.27;;;3.80;99.90;;;;;;5045786;28;20056;-49
2022/03/23 05:31:16;;;;;;;26.50;23.80;;;3.80;99.90;;;;;;5042859;28;20041;-49
2022/03/23 05:33:42;;;;;;;26.05;23.45;;;3.80;99.90;;;;;;5046540;28;20502;-52
2022/03/23 05:36:08;;;;;;;26.65;24.05;;;3.80;99.90;;;;;;5055279;28;20106;-48
2022/03/23 05:38:34;;;;;;;27.05;24.50;;;3.80;99.90;;;;;;5037992;28;20060;-49
2022/03/23 05:41:00;;;;;;;27.05;24.40;;;3.80;99.90;;;;;;5046691;28;20052;-51
2022/03/23 05:43:26;;;;;;;26.92;22.98;;;3.80;99.90;;;;;;5056429;28;20051;-49
2022/03/23 05:45:54;;;;;;;26.70;22.77;;;3.80;99.90;;;;;;5054740;28;20049;-49
2022/03/23 05:48:20;;;;;;;27.83;23.92;;;3.90;99.90;;;;;;5056491;28;20052;-50
2022/03/23 05:50:46;;;;;;;26.05;23.35;;;3.90;99.90;;;;;;5061283;28;20155;-50
2022/03/23 05:53:12;;;;;;;24.60;22.08;;;4.00;99.90;;;;;;5062113;28;20056;-49
2022/03/23 05:55:38;;;;;;;30.80;27.58;;;4.10;99.90;;;;;;5048023;28;20044;-47
2022/03/23 05:58:04;;;;;;;25.73;23.13;;;4.20;99.90;;;;;;5060410;28;20036;-49
2022/03/23 06:00:31;;;;;;;28.13;25.05;;;4.30;99.90;;;;;;5049830;28;20057;-48
2022/03/23 06:02:57;;;;;;;29.80;26.30;;;4.30;99.90;;;;;;5050777;28;20054;-48
2022/03/23 06:05:23;;;;;;;40.28;31.20;;;4.50;99.90;;;;;;5060567;28;20048;-49
2022/03/23 06:07:49;;;;;;;37.65;32.38;;;4.60;99.90;;;;;;5058297;28;20055;-49
2022/03/23 06:10:14;;;;;;;39.22;34.75;;;4.80;99.90;;;;;;5050021;28;20056;-50
2022/03/23 06:12:40;;;;;;;43.33;36.47;;;5.20;99.90;;;;;;5060470;28;20048;-52
2022/03/23 06:15:08;;;;;;;38.35;33.28;;;5.70;99.90;;;;;;5043184;28;20132;-49
2022/03/23 06:17:35;;;;;;;40.97;34.25;;;6.20;99.90;;;;;;5050532;28;20295;-51
2022/03/23 06:20:02;;;;;;;34.45;30.73;;;6.60;99.90;;;;;;5051212;28;20098;-51
2022/03/23 06:22:28;;;;;;;35.00;31.13;;;7.10;99.90;;;;;;5042858;28;20052;-50
2022/03/23 06:24:54;;;;;;;35.55;31.88;;;7.50;99.90;;;;;;5054097;28;20125;-49
2022/03/23 06:27:19;;;;;;;38.72;32.05;;;8.00;99.90;;;;;;5030285;28;20049;-45
2022/03/23 06:29:45;;;;;;;36.35;32.55;;;8.50;99.90;;;;;;5038950;28;20136;-56
2022/03/23 06:32:12;;;;;;;42.47;34.53;;;9.00;99.90;;;;;;5032672;28;20092;-50
2022/03/23 06:34:38;;;;;;;37.33;33.25;;;9.40;99.90;;;;;;5023981;28;20570;-51
2022/03/23 06:37:04;;;;;;;39.75;33.40;;;9.80;99.90;;;;;;5035040;28;20057;-50
2022/03/23 06:39:31;;;;;;;47.35;40.47;;;10.20;99.90;;;;;;5040489;28;20447;-51
2022/03/23 06:41:57;;;;;;;47.25;39.80;;;10.50;99.90;;;;;;5030804;28;20083;-52
2022/03/23 06:44:23;;;;;;;47.45;40.55;;;10.70;99.90;;;;;;5025308;28;20469;-49
2022/03/23 06:46:48;;;;;;;45.58;39.92;;;11.00;99.90;;;;;;5026782;28;20055;-49
2022/03/23 06:49:16;;;;;;;58.40;46.58;;;11.20;99.90;;;;;;5039968;28;20040;-49
2022/03/23 06:51:42;;;;;;;51.35;44.88;;;11.40;99.90;;;;;;5029524;28;20088;-50
2022/03/23 06:54:08;;;;;;;65.65;51.42;;;11.60;99.90;;;;;;5030110;28;20056;-47
2022/03/23 06:56:34;;;;;;;67.35;51.90;;;11.60;99.90;;;;;;5039801;28;20495;-52
2022/03/23 06:59:00;;;;;;;60.85;51.75;;;11.30;99.90;;;;;;5022254;28;20045;-51
2022/03/23 07:01:26;;;;;;;59.80;51.95;;;11.10;99.90;;;;;;5035381;28;20428;-51
2022/03/23 07:03:52;;;;;;;63.67;52.97;;;10.90;99.90;;;;;;5025181;28;20363;-50
2022/03/23 07:06:18;;;;;;;61.42;50.03;;;10.80;99.90;;;;;;5038055;28;20081;-49
2022/03/23 07:11:29;;;;;;;61.90;51.53;;;10.80;99.90;;;;;;5027214;28;20491;-50
2022/03/23 07:13:55;;;;;;;54.42;47.30;;;11.00;99.90;;;;;;5032564;28;20053;-51
2022/03/23 07:16:21;;;;;;;54.40;46.50;;;11.00;99.90;;;;;;5033924;28;20562;-51
2022/03/23 07:18:47;;;;;;;50.05;44.55;;;11.10;99.90;;;;;;5030738;28;20133;-51
2022/03/23 07:21:12;;;;;;;56.60;45.40;;;11.00;99.90;;;;;;5032482;28;20056;-50
2022/03/23 07:23:38;;;;;;;54.60;46.50;;;11.10;99.90;;;;;;5035407;28;20249;-51
2022/03/23 07:26:04;;;;;;;59.35;49.22;;;11.40;99.90;;;;;;5038542;28;20064;-53
2022/03/23 07:28:31;;;;;;;60.92;50.47;;;11.60;99.90;;;;;;5019633;28;20089;-51
2022/03/23 07:30:57;;;;;;;58.38;52.00;;;11.70;99.90;;;;;;5043684;28;20118;-51
2022/03/23 07:33:23;;;;;;;59.92;52.63;;;11.80;99.90;;;;;;5039357;28;20154;-50
2022/03/23 07:35:48;;;;;;;60.97;52.25;;;12.00;99.90;;;;;;5036812;28;20536;-53
2022/03/23 07:38:14;;;;;;;68.72;54.75;;;12.10;99.90;;;;;;5039224;28;20044;-54
2022/03/23 07:40:41;;;;;;;60.53;53.03;;;12.20;99.90;;;;;;5019706;28;20175;-50
2022/03/23 07:43:07;;;;;;;59.70;50.78;;;12.40;99.90;;;;;;5043010;28;20151;-56
2022/03/23 07:45:33;;;;;;;60.20;52.75;;;12.40;99.90;;;;;;5032367;28;20072;-54
2022/03/23 07:47:59;;;;;;;59.80;52.45;;;12.60;99.90;;;;;;5037678;28;20091;-51
2022/03/23 07:50:25;;;;;;;62.55;52.75;;;12.60;99.90;;;;;;5026890;28;20052;-52
2022/03/23 07:52:51;;;;;;;64.63;53.85;;;12.70;99.90;;;;;;5016644;28;20104;-51
2022/03/23 07:55:17;;;;;;;57.95;50.88;;;12.80;99.90;;;;;;5028962;28;20159;-53
2022/03/23 07:57:44;;;;;;;62.78;53.05;;;12.90;99.90;;;;;;5026483;28;20045;-54
2022/03/23 08:00:11;;;;;;;57.50;49.30;;;12.90;99.90;;;;;;5040452;28;20053;-53
2022/03/23 08:02:37;;;;;;;61.05;50.85;;;13.10;99.90;;;;;;5037205;28;20051;-53
2022/03/23 08:05:04;;;;;;;60.97;50.05;;;13.20;99.90;;;;;;5035839;28;20060;-53
2022/03/23 08:07:30;;;;;;;56.83;49.28;;;13.30;99.90;;;;;;5035621;28;20615;-54
2022/03/23 08:09:56;;;;;;;56.00;48.85;;;13.50;99.90;;;;;;5035526;28;20045;-54
2022/03/23 08:12:23;;;;;;;52.75;47.05;;;13.60;99.90;;;;;;5006517;28;20508;-51
2022/03/23 08:14:51;;;;;;;49.60;44.17;;;13.80;99.90;;;;;;5021524;28;20037;-52
2022/03/23 08:17:17;;;;;;;47.85;42.20;;;13.90;99.90;;;;;;5033498;28;20666;-52
2022/03/23 08:19:43;;;;;;;47.97;41.50;;;13.90;99.90;;;;;;5040527;28;20054;-53
2022/03/23 08:22:12;;;;;;;48.15;42.95;;;13.90;99.90;;;;;;5034959;28;20524;-51
2022/03/23 08:24:38;;;;;;;48.38;41.30;;;13.90;99.90;;;;;;5042878;28;20080;-51
2022/03/23 08:27:03;;;;;;;49.60;42.50;;;13.90;99.90;;;;;;5044539;28;20140;-50
2022/03/23 08:29:29;;;;;;;46.38;41.38;;;14.00;99.90;;;;;;5053661;28;20051;-54
2022/03/23 08:31:55;;;;;;;50.50;42.63;;;14.10;99.90;;;;;;5051861;28;20056;-53
2022/03/23 08:34:21;;;;;;;47.08;41.70;;;14.20;99.90;;;;;;5053757;28;20048;-55
2022/03/23 08:36:46;;;;;;;49.85;41.13;;;14.30;99.90;;;;;;5060282;28;20074;-54
2022/03/23 08:39:12;;;;;;;44.55;38.83;;;14.40;99.90;;;;;;5041664;28;20640;-55
2022/03/23 08:41:38;;;;;;;47.33;42.10;;;14.50;99.90;;;;;;5046846;28;20049;-54
2022/03/23 08:44:04;;;;;;;45.35;38.47;;;14.60;99.90;;;;;;5049741;28;20451;-54
2022/03/23 08:46:30;;;;;;;45.53;37.95;;;14.70;99.90;;;;;;5048400;28;20051;-53
2022/03/23 08:48:55;;;;;;;46.35;40.63;;;14.80;99.90;;;;;;5049293;28;20053;-55
2022/03/23 08:51:21;;;;;;;49.00;42.08;;;14.80;99.90;;;;;;5065491;28;20039;-54
2022/03/23 08:53:47;;;;;;;45.47;39.05;;;14.90;99.90;;;;;;5059825;28;20048;-55
2022/03/23 08:56:13;;;;;;;47.20;39.70;;;15.00;99.90;;;;;;5027727;28;20040;-53
2022/03/23 08:58:47;;;;;;;46.03;39.22;;;15.00;99.90;;;;;;5056155;28;20592;-55
2022/03/23 09:01:14;;;;;;;43.13;38.63;;;15.10;99.90;;;;;;5037633;28;20578;-54
2022/03/23 09:03:42;;;;;;;45.83;39.25;;;15.20;99.90;;;;;;5030057;28;20055;-56
2022/03/23 09:06:09;;;;;;;41.80;36.53;;;15.40;99.90;;;;;;5038268;28;20066;-55
2022/03/23 09:08:35;;;;;;;43.20;37.55;;;15.50;99.90;;;;;;5046425;28;20060;-55
2022/03/23 09:11:00;;;;;;;42.65;35.08;;;15.50;99.90;;;;;;5056741;28;20054;-55
2022/03/23 09:13:26;;;;;;;42.85;35.40;;;15.60;99.90;;;;;;5044172;28;20139;-52
2022/03/23 09:15:52;;;;;;;43.58;35.15;;;15.60;99.90;;;;;;5056853;28;20048;-48
2022/03/23 09:18:18;;;;;;;40.20;34.80;;;15.70;99.90;;;;;;5060144;28;20517;-55
2022/03/23 09:20:49;;;;;;;37.95;33.30;;;15.80;99.90;;;;;;5062195;28;20052;-55
2022/03/23 09:23:14;;;;;;;38.47;33.13;;;15.90;99.90;;;;;;5044068;28;20144;-54
2022/03/23 09:25:40;;;;;;;39.00;33.97;;;15.90;99.80;;;;;;5044100;28;20517;-55
2022/03/23 09:28:06;;;;;;;37.75;32.92;;;16.00;99.00;;;;;;5041280;28;20147;-55
2022/03/23 09:30:31;;;;;;;38.83;33.85;;;16.10;99.00;;;;;;5030232;28;20127;-55
2022/03/23 09:32:58;;;;;;;37.75;33.75;;;16.10;98.40;;;;;;5041059;28;20559;-55
2022/03/23 09:35:24;;;;;;;37.08;32.63;;;16.10;98.50;;;;;;5041104;28;20794;-55
2022/03/23 09:37:53;;;;;;;40.53;33.47;;;16.20;98.80;;;;;;5023496;28;20083;-55
2022/03/23 09:40:25;;;;;;;37.22;33.10;;;16.30;98.20;;;;;;5040749;28;20049;-55
2022/03/23 09:42:53;;;;;;;39.47;33.78;;;16.40;97.60;;;;;;5033080;28;20052;-55
2022/03/23 09:45:37;;;;;;;39.85;33.65;;;16.50;97.90;;;;;;5040905;28;20487;-56
2022/03/23 09:48:09;;;;;;;36.65;31.88;;;16.50;96.10;;;;;;5040368;28;20049;-54
2022/03/23 09:50:37;;;;;;;37.85;31.67;;;16.60;96.40;;;;;;5023990;28;20078;-56
2022/03/23 09:53:03;;;;;;;36.22;31.92;;;16.60;95.70;;;;;;5044131;28;20125;-56
2022/03/23 09:55:30;;;;;;;34.88;31.17;;;16.70;94.50;;;;;;5040795;28;20149;-57
2022/03/23 09:57:57;;;;;;;37.55;30.40;;;16.80;93.70;;;;;;5041027;28;20053;-55
2022/03/23 10:00:27;;;;;;;33.53;29.38;;;16.80;93.70;;;;;;5041322;28;20057;-55
2022/03/23 10:03:11;;;;;;;35.25;29.77;;;16.90;93.50;;;;;;5040147;28;20067;-55
2022/03/23 10:05:58;;;;;;;32.15;28.48;;;17.00;93.00;;;;;;5042332;28;20045;-54
2022/03/23 10:08:58;;;;;;;30.63;27.33;;;17.00;91.20;;;;;;5037325;28;20049;-55
2022/03/23 10:12:13;;;;;;;34.63;27.65;;;17.00;90.80;;;;;;5046928;28;20056;-53
2022/03/23 10:14:44;;;;;;;;;;;17.10;89.10;;;;;;4956882;28;20058;-55
2022/03/23 10:17:25;;;;;;;32.08;27.45;;;17.20;87.60;;;;;;4953951;28;19946;-55
2022/03/23 10:19:51;;;;;;;30.00;26.75;;;17.30;90.10;;;;;;4952950;28;20078;-56
2022/03/23 10:22:17;;;;;;;30.90;25.35;;;17.50;89.70;;;;;;4937497;28;20121;-54
2022/03/23 10:24:43;;;;;;;30.30;25.27;;;17.50;87.20;;;;;;4956869;28;20429;-55
2022/03/23 10:27:12;;;;;;;31.80;25.00;;;17.50;85.40;;;;;;4956367;28;20054;-54
2022/03/23 10:29:46;;;;;;;28.73;25.52;;;17.50;82.30;;;;;;4954349;28;20055;-53
2022/03/23 10:32:13;;;;;;;36.10;25.80;;;17.50;83.40;;;;;;4958803;28;20069;-46
2022/03/23 10:34:49;;;;;;;35.17;26.88;;;17.50;83.90;;;;;;4928449;29;20393;-56
2022/03/23 10:37:25;;;;;;;37.17;29.30;;;17.50;84.10;;;;;;4946755;28;20054;-55
2022/03/23 10:39:55;;;;;;;31.52;28.08;;;17.60;84.60;;;;;;4944563;28;20435;-56
2022/03/23 10:42:23;;;;;;;31.50;27.33;;;17.60;83.80;;;;;;4958431;28;20169;-54
2022/03/23 10:44:50;;;;;;;28.48;25.42;;;17.60;83.50;;;;;;4940904;28;20063;-56
2022/03/23 10:47:31;;;;;;;30.65;27.10;;;17.60;83.90;;;;;;4955886;28;20410;-56
2022/03/23 10:50:19;;;;;;;30.02;26.80;;;17.70;83.90;;;;;;4957739;28;20121;-54
2022/03/23 10:53:00;;;;;;;34.53;27.35;;;17.90;85.50;;;;;;5043691;28;20071;-55
2022/03/23 10:55:36;;;;;;;32.42;28.38;;;17.90;83.60;;;;;;5048784;28;20033;-56
2022/03/23 10:58:05;;;;;;;30.90;26.95;;;17.90;80.50;;;;;;5055663;28;20041;-56
2022/03/23 11:00:32;;;;;;;32.33;27.30;;;17.90;82.60;;;;;;5052409;28;20049;-56
2022/03/23 11:02:59;;;;;;;30.77;27.40;;;18.00;84.50;;;;;;5051726;28;20071;-53
2022/03/23 11:05:46;;;;;;;32.63;26.20;;;18.10;84.10;;;;;;5060723;28;20051;-56
2022/03/23 11:08:12;;;;;;;27.90;24.67;;;18.10;82.40;;;;;;5061227;28;20044;-55
2022/03/23 11:16:36;;;;;;;30.13;24.85;;;18.20;82.00;;;;;;5056488;28;20395;-56
2022/03/23 11:19:19;;;;;;;28.65;24.45;;;18.30;83.00;;;;;;5048994;28;20057;-59
2022/03/23 11:22:04;;;;;;;30.15;26.55;;;18.40;80.90;;;;;;5047004;28;20056;-56
2022/03/23 11:24:32;;;;;;;35.22;27.95;;;18.30;82.20;;;;;;5061387;28;20092;-56
2022/03/23 11:26:58;;;;;;;27.58;23.38;;;18.20;82.60;;;;;;5055897;28;20051;-55
2022/03/23 11:29:25;;;;;;;31.15;22.50;;;18.20;82.60;;;;;;5042388;28;20064;-56
2022/03/23 11:31:53;;;;;;;30.17;22.63;;;18.20;81.30;;;;;;5031238;28;20091;-55
2022/03/23 11:34:22;;;;;;;30.17;20.33;;;18.20;80.90;;;;;;5050640;28;20052;-56
2022/03/23 11:36:50;;;;;;;30.42;21.25;;;18.30;81.10;;;;;;5036056;28;20057;-55
2022/03/23 11:39:16;;;;;;;28.70;19.13;;;18.30;80.70;;;;;;5049009;28;20057;-53
2022/03/23 11:41:43;;;;;;;29.88;14.73;;;18.30;78.90;;;;;;5058288;28;20105;-55
2022/03/23 11:44:15;;;;;;;26.25;15.48;;;18.30;78.50;;;;;;5049185;28;20048;-56
2022/03/23 11:46:42;;;;;;;26.27;14.00;;;18.30;78.00;;;;;;5049329;28;20084;-54
2022/03/23 11:49:20;;;;;;;23.65;13.38;;;18.30;79.90;;;;;;5055130;28;20056;-55
2022/03/23 11:52:32;;;;;;;24.65;14.38;;;18.40;78.60;;;;;;5042631;28;20463;-56
2022/03/23 11:58:27;;;;;;;25.85;11.60;;;18.30;77.20;;;;;;5057750;28;20153;-56
2022/03/23 12:01:06;;;;;;;23.60;12.27;;;18.20;76.60;;;;;;5053785;28;20499;-56
2022/03/23 12:03:41;;;;;;;22.70;14.27;;;18.30;77.70;;;;;;5033581;28;20104;-56
2022/03/23 12:06:39;;;;;;;22.35;12.57;;;18.30;76.00;;;;;;5050256;28;20053;-50
2022/03/23 12:09:05;;;;;;;29.73;12.80;;;18.20;75.00;;;;;;5062998;28;20040;-55
2022/03/23 12:11:43;;;;;;;21.27;10.43;;;18.30;76.50;;;;;;5060928;28;20063;-56
2022/03/23 12:14:42;;;;;;;25.02;11.10;;;18.40;77.10;;;;;;5049552;28;20132;-55
2022/03/23 12:17:15;;;;;;;22.63;11.93;;;18.40;75.30;;;;;;5033139;28;20524;-56
2022/03/23 12:20:06;;;;;;;25.33;12.95;;;18.30;76.00;;;;;;5058497;28;20040;-56
2022/03/23 12:22:32;;;;;;;26.50;13.05;;;18.40;77.10;;;;;;5043653;28;20098;-56
2022/03/23 12:25:28;;;;;;;28.10;12.05;;;18.50;78.60;;;;;;5059964;28;20056;-55
2022/03/23 12:28:23;;;;;;;23.88;11.60;;;18.40;74.20;;;;;;5056244;28;20049;-56
2022/03/23 12:30:58;;;;;;;25.05;12.82;;;18.50;75.50;;;;;;5056087;28;20542;-56
2022/03/23 12:33:27;;;;;;;19.70;12.30;;;18.50;76.60;;;;;;5055437;28;20090;-56
2022/03/23 12:36:03;;;;;;;23.70;14.80;;;18.60;76.80;;;;;;5058655;28;20041;-56
2022/03/23 12:38:29;;;;;;;26.08;14.80;;;18.60;77.10;;;;;;5063153;28;20066;-55
2022/03/23 12:41:04;;;;;;;29.55;13.10;;;18.70;77.40;;;;;;5044457;28;20064;-52
2022/03/23 12:43:42;;;;;;;22.27;13.43;;;18.60;76.10;;;;;;5026285;28;20044;-56
2022/03/23 12:46:22;;;;;;;28.10;14.10;;;18.60;76.60;;;;;;5047529;28;20052;-52
2022/03/23 12:57:49;;;;;;;20.40;12.93;;;18.60;76.10;;;;;;5060301;28;20056;-56
2022/03/23 13:00:28;;;;;;;26.75;13.98;;;18.60;76.70;;;;;;5047070;28;20147;-55
2022/03/23 13:03:06;;;;;;;24.15;14.52;;;18.60;74.80;;;;;;5056931;28;20052;-50
2022/03/23 13:05:59;;;;;;;22.50;14.95;;;18.60;73.60;;;;;;5051762;28;20044;-56
2022/03/23 13:08:29;;;;;;;24.55;16.60;;;18.50;75.20;;;;;;5045595;28;20049;-54